Time;durP1;ratioP1;P1;durP2;ratioP2;P2;SDS_P1;SDS_P2;PMS_P1;PMS_P2;Temp;Humidity;BMP_temperature;BMP_pressure;BME280_temperature;BME280_humidity;BME280_pressure;Samples;Min_cycle;Max_cycle;Signal;HPM_P1;HPM_P2
2022/05/13 00:01:35;;;;;;;5.50;1.95;;;20.50;58.20;;;;;;5033646;28;20033;-61
2022/05/13 00:04:01;;;;;;;5.75;1.95;;;20.50;58.10;;;;;;5036806;28;20042;-61
2022/05/13 00:06:27;;;;;;;4.32;1.75;;;20.50;58.20;;;;;;5032054;28;20053;-61
2022/05/13 00:08:53;;;;;;;6.45;1.83;;;20.50;58.10;;;;;;5034996;28;20021;-61
2022/05/13 00:11:18;;;;;;;5.13;1.70;;;20.40;58.00;;;;;;5035273;28;20405;-61
2022/05/13 00:13:44;;;;;;;5.80;1.73;;;20.40;58.00;;;;;;5038202;28;20013;-61
2022/05/13 00:16:10;;;;;;;7.22;1.98;;;20.40;58.00;;;;;;5035767;28;20738;-61
2022/05/13 00:18:36;;;;;;;4.95;1.70;;;20.40;58.20;;;;;;5034750;28;20560;-61
2022/05/13 00:21:01;;;;;;;4.65;1.80;;;20.40;58.00;;;;;;5031739;28;20556;-60
2022/05/13 00:23:27;;;;;;;4.75;1.60;;;20.40;57.90;;;;;;5040801;28;20397;-61
2022/05/13 00:25:53;;;;;;;4.68;1.70;;;20.40;58.00;;;;;;5036453;28;20405;-61
2022/05/13 00:28:18;;;;;;;5.63;1.80;;;20.40;58.00;;;;;;5036441;28;20021;-60
2022/05/13 00:30:48;;;;;;;4.18;1.70;;;20.40;58.00;;;;;;5033573;28;20025;-61
2022/05/13 00:33:14;;;;;;;3.33;1.55;;;20.40;58.10;;;;;;5035554;28;20040;-60
2022/05/13 00:35:39;;;;;;;4.90;1.73;;;20.40;58.00;;;;;;5034942;28;20033;-61
2022/05/13 00:38:05;;;;;;;4.57;1.80;;;20.30;58.10;;;;;;5039785;28;20460;-61
2022/05/13 00:40:31;;;;;;;4.50;2.10;;;20.30;58.00;;;;;;5039415;28;20143;-61
2022/05/13 00:42:59;;;;;;;7.05;1.85;;;20.30;58.00;;;;;;5031483;28;20112;-60
2022/05/13 00:45:24;;;;;;;6.72;1.88;;;20.30;58.00;;;;;;5031480;28;20037;-61
2022/05/13 00:47:50;;;;;;;6.10;1.85;;;20.30;58.00;;;;;;5034465;28;20044;-61
2022/05/13 00:50:15;;;;;;;4.47;1.65;;;20.30;58.00;;;;;;5034233;28;20120;-61
2022/05/13 00:52:43;;;;;;;4.40;1.70;;;20.30;58.00;;;;;;5037299;28;20060;-61
2022/05/13 00:55:11;;;;;;;4.38;1.67;;;20.30;58.10;;;;;;5039150;28;20444;-61
2022/05/13 00:57:37;;;;;;;5.35;1.88;;;20.30;58.10;;;;;;5037282;28;20417;-61
2022/05/13 01:00:05;;;;;;;4.95;1.90;;;20.30;58.10;;;;;;5046746;28;20120;-61
2022/05/13 01:02:31;;;;;;;4.65;1.80;;;20.20;58.10;;;;;;5034449;28;20030;-61
2022/05/13 01:04:57;;;;;;;5.85;1.77;;;20.20;58.00;;;;;;5038839;28;20517;-61
2022/05/13 01:07:23;;;;;;;3.55;1.50;;;20.20;58.00;;;;;;5048223;28;20053;-61
2022/05/13 01:09:51;;;;;;;4.45;1.50;;;20.20;58.00;;;;;;5039640;28;20037;-61
2022/05/13 01:12:20;;;;;;;3.75;1.55;;;20.20;58.10;;;;;;5038371;28;20439;-61
2022/05/13 01:15:01;;;;;;;3.45;1.60;;;20.20;59.10;;;;;;5029155;28;20711;-61
2022/05/13 01:20:23;;;;;;;2.17;1.48;;;20.20;58.10;;;;;;5035401;28;20029;-61
2022/05/13 01:22:58;;;;;;;3.05;1.50;;;20.10;58.10;;;;;;5042526;28;20030;-61
2022/05/13 01:25:25;;;;;;;;;;;20.10;58.10;;;;;;5041899;28;20065;-61
2022/05/13 01:27:50;;;;;;;4.13;1.70;;;20.10;58.00;;;;;;5039180;28;20408;-61
2022/05/13 01:30:30;;;;;;;3.33;1.50;;;20.10;58.10;;;;;;5035135;28;20025;-60
2022/05/13 01:32:56;;;;;;;5.72;1.88;;;20.10;58.20;;;;;;5037910;28;20067;-61
2022/05/13 01:35:21;;;;;;;5.55;1.88;;;20.10;58.10;;;;;;5038184;28;20594;-61
2022/05/13 01:37:47;;;;;;;3.60;1.67;;;20.00;58.00;;;;;;5039173;28;20041;-61
2022/05/13 01:40:13;;;;;;;4.40;1.63;;;20.10;58.10;;;;;;5036750;28;20033;-61
2022/05/13 01:42:38;;;;;;;4.78;1.60;;;20.10;58.10;;;;;;5035505;28;20418;-61
2022/05/13 01:45:05;;;;;;;5.07;1.38;;;20.10;58.20;;;;;;5036368;28;20033;-61
2022/05/13 01:47:32;;;;;;;5.50;1.60;;;20.00;58.10;;;;;;5037397;28;20061;-61
2022/05/13 01:49:58;;;;;;;3.85;1.63;;;20.00;58.10;;;;;;5038450;28;20029;-61
2022/05/13 01:52:24;;;;;;;3.78;1.40;;;20.00;58.10;;;;;;5036828;28;20104;-61
2022/05/13 01:54:49;;;;;;;4.43;1.60;;;20.00;58.20;;;;;;5038756;28;20454;-61
2022/05/13 01:57:15;;;;;;;2.92;1.60;;;20.00;58.20;;;;;;5045352;28;20036;-61
2022/05/13 01:59:41;;;;;;;3.95;1.83;;;20.00;58.20;;;;;;5040816;28;20116;-61
2022/05/13 02:02:06;;;;;;;4.47;1.80;;;20.00;58.30;;;;;;5036568;28;20502;-61
2022/05/13 02:04:32;;;;;;;2.85;1.40;;;20.00;58.20;;;;;;5036729;28;20080;-61
2022/05/13 02:06:58;;;;;;;4.38;1.67;;;20.00;58.30;;;;;;5037721;28;20401;-61
2022/05/13 02:09:23;;;;;;;4.43;1.30;;;19.90;58.20;;;;;;5034968;28;20043;-60
2022/05/13 02:11:49;;;;;;;5.85;1.70;;;19.90;58.20;;;;;;5038407;28;20402;-60
2022/05/13 02:14:16;;;;;;;3.58;1.80;;;19.90;58.20;;;;;;5034444;28;20080;-61
2022/05/13 02:16:42;;;;;;;4.90;1.40;;;19.90;58.30;;;;;;5040896;28;20445;-61
2022/05/13 02:19:07;;;;;;;4.55;1.50;;;19.90;58.30;;;;;;5037971;28;20486;-61
2022/05/13 02:21:33;;;;;;;3.53;1.40;;;19.90;58.30;;;;;;5033785;28;20497;-61
2022/05/13 02:23:59;;;;;;;1.77;1.10;;;19.90;58.30;;;;;;5034773;28;20061;-61
2022/05/13 02:26:24;;;;;;;4.10;1.40;;;19.90;58.30;;;;;;5038196;28;20026;-61
2022/05/13 02:28:50;;;;;;;3.90;1.33;;;19.90;58.30;;;;;;5034880;28;20059;-61
2022/05/13 02:31:16;;;;;;;3.90;1.40;;;19.90;58.30;;;;;;5038026;28;20057;-61
2022/05/13 02:33:42;;;;;;;3.38;1.33;;;19.90;58.30;;;;;;5034388;28;20037;-61
2022/05/13 02:36:07;;;;;;;3.65;1.48;;;19.80;58.30;;;;;;5035190;28;20044;-61
2022/05/13 02:38:33;;;;;;;4.30;1.58;;;19.80;58.30;;;;;;5033463;28;20113;-61
2022/05/13 02:41:14;;;;;;;4.72;1.33;;;19.80;58.30;;;;;;5038302;28;20063;-61
2022/05/13 02:43:48;;;;;;;4.30;1.67;;;19.80;58.40;;;;;;5033174;28;20021;-61
2022/05/13 02:46:23;;;;;;;4.37;1.40;;;19.80;58.40;;;;;;5039398;28;20099;-61
2022/05/13 02:48:49;;;;;;;;;;;19.80;58.40;;;;;;5037901;28;20045;-61
2022/05/13 02:51:14;;;;;;;3.55;1.30;;;19.80;58.40;;;;;;5033261;28;19968;-61
2022/05/13 02:53:40;;;;;;;2.80;1.30;;;19.80;58.40;;;;;;5032090;28;20055;-60
2022/05/13 02:56:07;;;;;;;3.45;1.27;;;19.80;58.40;;;;;;5036238;28;20076;-61
2022/05/13 02:58:33;;;;;;;3.58;1.30;;;19.80;58.50;;;;;;5035619;28;20031;-61
2022/05/13 03:00:59;;;;;;;4.40;1.30;;;19.80;58.40;;;;;;5036273;28;20498;-61
2022/05/13 03:03:25;;;;;;;4.28;1.35;;;19.70;58.40;;;;;;5036489;28;20071;-61
2022/05/13 03:05:51;;;;;;;3.10;1.20;;;19.70;58.40;;;;;;5031368;28;20108;-62
2022/05/13 03:08:16;;;;;;;3.90;1.50;;;19.70;58.40;;;;;;5039452;28;20033;-61
2022/05/13 03:10:42;;;;;;;3.78;1.40;;;19.70;58.40;;;;;;5037802;28;20086;-61
2022/05/13 03:13:09;;;;;;;4.22;1.48;;;19.70;58.40;;;;;;5034134;28;20028;-61
2022/05/13 03:15:35;;;;;;;5.35;1.67;;;19.70;58.40;;;;;;5041321;28;20452;-61
2022/05/13 03:18:00;;;;;;;3.72;1.40;;;19.70;58.40;;;;;;5034060;28;20049;-61
2022/05/13 03:20:26;;;;;;;3.65;1.17;;;19.70;58.50;;;;;;5035734;28;20064;-61
2022/05/13 03:22:52;;;;;;;3.72;1.45;;;19.70;58.50;;;;;;5040431;28;20044;-61
2022/05/13 03:25:18;;;;;;;5.00;1.60;;;19.60;58.40;;;;;;5036362;28;20393;-61
2022/05/13 03:27:43;;;;;;;2.88;1.38;;;19.60;58.40;;;;;;5039146;28;20028;-61
2022/05/13 03:30:11;;;;;;;3.55;1.27;;;19.60;58.40;;;;;;5040459;28;20033;-61
2022/05/13 03:32:37;;;;;;;4.80;1.33;;;19.60;58.40;;;;;;5038517;28;20400;-61
2022/05/13 03:35:04;;;;;;;3.38;1.20;;;19.60;58.40;;;;;;5034161;28;20041;-61
2022/05/13 03:37:30;;;;;;;4.13;1.40;;;19.60;58.50;;;;;;5035638;28;20119;-61
2022/05/13 03:39:56;;;;;;;3.30;1.33;;;19.60;58.60;;;;;;5035369;28;20112;-61
2022/05/13 03:42:22;;;;;;;4.03;1.42;;;19.60;58.60;;;;;;5040716;28;20033;-61
2022/05/13 03:44:49;;;;;;;2.40;1.30;;;19.60;58.70;;;;;;5036637;28;20081;-61
2022/05/13 03:47:15;;;;;;;3.85;1.40;;;19.60;58.70;;;;;;5040753;28;20036;-61
2022/05/13 03:49:42;;;;;;;2.50;1.23;;;19.60;58.60;;;;;;5035992;28;20036;-61
2022/05/13 03:52:08;;;;;;;3.58;1.45;;;19.60;58.70;;;;;;5041267;28;20524;-61
2022/05/13 03:54:34;;;;;;;3.38;1.48;;;19.60;58.70;;;;;;5039039;28;20418;-61
2022/05/13 03:57:00;;;;;;;3.88;1.40;;;19.50;58.70;;;;;;5036235;28;20038;-61
2022/05/13 03:59:26;;;;;;;4.03;1.50;;;19.60;58.70;;;;;;5033218;28;20025;-61
2022/05/13 04:01:52;;;;;;;2.45;1.17;;;19.50;58.60;;;;;;5033707;28;20029;-61
2022/05/13 04:04:21;;;;;;;3.13;1.40;;;19.50;58.60;;;;;;5036500;28;20025;-61
2022/05/13 04:09:32;;;;;;;4.13;1.20;;;19.50;58.60;;;;;;5039222;28;20520;-61
2022/05/13 04:17:26;;;;;;;3.38;1.45;;;19.50;58.70;;;;;;5034358;28;20076;-61
2022/05/13 04:19:51;;;;;;;3.83;1.33;;;19.50;58.70;;;;;;5032847;28;20506;-61
2022/05/13 04:22:17;;;;;;;4.10;1.58;;;19.50;58.80;;;;;;5035878;28;20060;-61
2022/05/13 04:24:42;;;;;;;4.53;1.50;;;19.50;58.80;;;;;;5033656;28;20036;-61
2022/05/13 04:27:08;;;;;;;3.65;1.33;;;19.50;58.90;;;;;;5036278;28;20487;-61
2022/05/13 04:29:36;;;;;;;4.32;1.40;;;19.40;58.70;;;;;;5029432;28;20532;-61
2022/05/13 04:32:02;;;;;;;3.63;1.30;;;19.40;58.70;;;;;;5038391;28;20108;-61
2022/05/13 04:34:28;;;;;;;3.47;1.30;;;19.40;58.80;;;;;;5041143;28;20112;-62
2022/05/13 04:36:54;;;;;;;4.72;1.50;;;19.40;58.70;;;;;;5042092;28;20037;-61
2022/05/13 04:39:19;;;;;;;2.85;1.30;;;19.40;58.80;;;;;;5032763;28;20454;-61
2022/05/13 04:44:29;;;;;;;4.55;1.30;;;19.40;58.80;;;;;;5035277;28;20052;-61
2022/05/13 04:46:57;;;;;;;3.85;1.35;;;19.40;58.80;;;;;;5041672;28;20025;-61
2022/05/13 04:49:22;;;;;;;2.53;1.20;;;19.40;58.80;;;;;;5042188;28;20382;-61
2022/05/13 04:51:48;;;;;;;3.65;1.40;;;19.40;58.80;;;;;;5037751;28;20032;-61
2022/05/13 04:54:14;;;;;;;2.15;1.20;;;19.40;58.80;;;;;;5035671;28;20033;-61
2022/05/13 04:56:40;;;;;;;2.63;1.20;;;19.40;58.90;;;;;;5036283;28;20041;-61
2022/05/13 04:59:05;;;;;;;6.13;1.40;;;19.40;58.90;;;;;;5039216;28;20033;-60
2022/05/13 05:01:31;;;;;;;3.10;1.30;;;19.40;58.70;;;;;;5036365;28;20029;-60
2022/05/13 05:03:57;;;;;;;3.55;1.30;;;19.40;58.80;;;;;;5040852;28;20029;-60
2022/05/13 05:06:22;;;;;;;3.85;1.38;;;19.30;58.80;;;;;;5034675;28;20082;-60
2022/05/13 05:08:48;;;;;;;3.58;1.30;;;19.30;58.80;;;;;;5038421;28;20037;-60
2022/05/13 05:11:14;;;;;;;4.75;1.38;;;19.30;58.90;;;;;;5038540;28;20025;-62
2022/05/13 05:13:47;;;;;;;4.80;1.48;;;19.30;59.00;;;;;;5036581;28;20084;-62
2022/05/13 05:16:15;;;;;;;6.82;1.70;;;19.40;60.10;;;;;;5040967;28;20062;-60
2022/05/13 05:18:41;;;;;;;3.65;1.60;;;19.40;59.20;;;;;;5035287;28;20422;-59
2022/05/13 05:21:07;;;;;;;4.45;1.60;;;19.40;59.50;;;;;;5036498;28;20040;-59
2022/05/13 05:23:35;;;;;;;4.05;1.35;;;19.40;59.70;;;;;;5041894;28;20067;-59
2022/05/13 05:26:01;;;;;;;3.33;1.50;;;19.40;59.70;;;;;;5043225;28;20120;-59
2022/05/13 05:28:27;;;;;;;7.40;1.77;;;19.40;59.90;;;;;;5048200;28;20136;-60
2022/05/13 05:30:53;;;;;;;7.65;1.50;;;19.40;60.00;;;;;;5040394;28;20032;-60
2022/05/13 05:33:18;;;;;;;4.35;1.40;;;19.50;60.20;;;;;;5039428;28;20406;-60
2022/05/13 05:35:44;;;;;;;4.47;1.55;;;19.50;60.00;;;;;;5033061;28;20029;-59
2022/05/13 05:38:10;;;;;;;5.75;1.70;;;19.50;60.00;;;;;;5040056;28;20035;-60
2022/05/13 05:40:37;;;;;;;9.23;1.85;;;19.40;60.20;;;;;;5036053;28;20087;-60
2022/05/13 05:43:09;;;;;;;6.55;1.52;;;19.40;60.00;;;;;;5034261;28;20038;-59
2022/05/13 05:45:36;;;;;;;4.45;1.73;;;19.40;60.10;;;;;;5041015;28;20041;-59
2022/05/13 05:48:01;;;;;;;4.78;1.67;;;19.40;60.00;;;;;;5037377;28;20390;-59
2022/05/13 05:50:27;;;;;;;5.85;1.70;;;19.40;60.00;;;;;;5043865;28;20018;-60
2022/05/13 05:52:53;;;;;;;4.85;1.50;;;19.40;60.00;;;;;;5038034;28;20041;-59
2022/05/13 05:58:13;;;;;;;4.10;1.60;;;19.40;60.00;;;;;;5036413;28;20095;-60
2022/05/13 06:00:47;;;;;;;7.18;1.80;;;19.40;60.10;;;;;;5037819;28;20033;-60
2022/05/13 06:03:13;;;;;;;4.13;1.75;;;19.40;60.00;;;;;;5033845;28;20558;-59
2022/05/13 06:05:39;;;;;;;7.30;1.67;;;19.40;60.00;;;;;;5039909;28;20034;-60
2022/05/13 06:08:05;;;;;;;7.70;1.63;;;19.40;60.10;;;;;;5027789;28;20030;-60
2022/05/13 06:10:31;;;;;;;5.47;1.80;;;19.40;60.10;;;;;;5040237;28;20021;-59
2022/05/13 06:12:57;;;;;;;4.15;1.60;;;19.40;60.00;;;;;;5038934;28;20045;-59
2022/05/13 06:15:23;;;;;;;5.90;1.58;;;19.40;61.00;;;;;;5034090;28;20517;-60
2022/05/13 06:17:53;;;;;;;5.30;1.52;;;19.40;60.00;;;;;;5041107;28;20116;-59
2022/05/13 06:20:20;;;;;;;7.10;1.80;;;19.40;60.00;;;;;;5034934;28;20497;-59
2022/05/13 06:22:46;;;;;;;6.88;1.58;;;19.40;60.00;;;;;;5039745;28;20093;-60
2022/05/13 06:25:13;;;;;;;4.63;1.67;;;19.40;60.10;;;;;;5036967;28;20528;-60
2022/05/13 06:27:39;;;;;;;6.28;1.65;;;19.40;60.00;;;;;;5041069;28;20520;-60
2022/05/13 06:30:10;;;;;;;6.32;1.88;;;19.40;60.00;;;;;;5034119;28;20028;-60
2022/05/13 06:32:35;;;;;;;6.22;1.90;;;19.40;60.00;;;;;;5036357;28;20108;-59
2022/05/13 06:35:01;;;;;;;7.85;1.90;;;19.40;60.00;;;;;;5038576;28;20028;-60
2022/05/13 06:37:27;;;;;;;5.32;1.63;;;19.40;60.00;;;;;;5037700;28;20122;-60
2022/05/13 06:39:52;;;;;;;4.35;1.50;;;19.40;59.90;;;;;;5038634;28;20028;-59
2022/05/13 06:42:18;;;;;;;5.35;1.55;;;19.40;59.90;;;;;;5033962;28;20241;-59
2022/05/13 06:44:44;;;;;;;5.38;1.70;;;19.40;59.90;;;;;;5036440;28;20048;-60
2022/05/13 06:47:09;;;;;;;5.68;1.60;;;19.40;59.80;;;;;;5035451;28;20033;-60
2022/05/13 06:49:35;;;;;;;7.70;1.80;;;19.40;59.80;;;;;;5039492;28;20031;-59
2022/05/13 06:52:02;;;;;;;4.70;1.60;;;19.40;59.80;;;;;;5035535;28;20025;-60
2022/05/13 06:54:31;;;;;;;4.90;1.63;;;19.40;59.80;;;;;;5034059;28;20029;-59
2022/05/13 06:56:56;;;;;;;6.35;1.60;;;19.40;59.80;;;;;;5037685;28;20104;-60
2022/05/13 06:59:22;;;;;;;4.57;1.50;;;19.50;59.90;;;;;;5036114;28;20164;-59
2022/05/13 07:01:48;;;;;;;4.60;1.83;;;19.50;59.90;;;;;;5035624;28;20444;-60
2022/05/13 07:04:14;;;;;;;4.70;1.50;;;19.50;59.90;;;;;;5036022;28;20022;-59
2022/05/13 07:06:39;;;;;;;6.65;1.80;;;19.40;59.80;;;;;;5040588;28;20051;-60
2022/05/13 07:09:05;;;;;;;4.45;1.48;;;19.40;59.90;;;;;;5033042;28;20104;-60
2022/05/13 07:11:31;;;;;;;4.57;2.05;;;19.50;60.00;;;;;;5041891;28;20040;-60
2022/05/13 07:13:57;;;;;;;5.22;1.85;;;19.40;59.90;;;;;;5036592;28;20441;-60
2022/05/13 07:16:23;;;;;;;2.95;1.45;;;19.50;60.00;;;;;;5034613;28;20037;-60
2022/05/13 07:18:49;;;;;;;6.75;1.75;;;19.40;59.90;;;;;;5034663;28;20033;-60
2022/05/13 07:21:15;;;;;;;6.15;1.60;;;19.40;59.90;;;;;;5031633;28;20033;-60
2022/05/13 07:23:40;;;;;;;5.18;1.60;;;19.40;59.90;;;;;;5033972;28;20018;-59
2022/05/13 07:26:06;;;;;;;4.60;1.58;;;19.50;60.00;;;;;;5033174;28;20471;-59
2022/05/13 07:28:33;;;;;;;4.47;1.67;;;19.50;59.90;;;;;;5033669;28;20063;-60
2022/05/13 07:31:00;;;;;;;5.25;1.70;;;19.50;59.90;;;;;;5035100;28;20469;-60
2022/05/13 07:33:28;;;;;;;5.10;1.70;;;19.50;59.90;;;;;;5036787;28;22255;-60
2022/05/13 07:35:54;;;;;;;4.35;1.70;;;19.50;59.90;;;;;;5033361;28;20108;-60
2022/05/13 07:38:19;;;;;;;5.75;1.67;;;19.50;59.90;;;;;;5036032;28;20108;-60
2022/05/13 07:43:29;;;;;;;4.07;1.60;;;19.50;60.00;;;;;;5033995;28;20059;-60
2022/05/13 07:45:55;;;;;;;4.80;1.52;;;19.50;59.90;;;;;;5035891;28;20474;-59
2022/05/13 07:48:21;;;;;;;3.83;1.55;;;19.50;59.90;;;;;;5031487;28;20016;-60
2022/05/13 07:50:46;;;;;;;4.90;1.70;;;19.50;59.90;;;;;;5034127;28;20097;-60
2022/05/13 07:53:12;;;;;;;5.75;1.90;;;19.50;59.90;;;;;;5035691;28;20041;-60
2022/05/13 07:55:37;;;;;;;5.05;1.60;;;19.50;60.00;;;;;;5037036;28;20496;-60
2022/05/13 07:58:03;;;;;;;5.00;1.80;;;19.60;59.90;;;;;;5032969;28;20040;-59
2022/05/13 08:00:32;;;;;;;4.85;1.60;;;19.60;59.90;;;;;;5036812;28;20037;-59
2022/05/13 08:03:06;;;;;;;3.70;1.48;;;19.60;59.80;;;;;;5040894;28;20037;-59
2022/05/13 08:05:42;;;;;;;4.28;1.60;;;19.60;59.80;;;;;;5043260;28;20036;-60
2022/05/13 08:08:21;;;;;;;6.15;1.75;;;19.60;59.90;;;;;;5040369;28;20041;-60
2022/05/13 08:10:54;;;;;;;6.22;1.70;;;19.60;59.80;;;;;;5043220;28;20080;-60
2022/05/13 08:13:20;;;;;;;3.25;1.40;;;19.60;59.70;;;;;;5040829;28;20611;-59
2022/05/13 08:15:46;;;;;;;4.50;1.52;;;19.60;59.80;;;;;;5037688;28;20061;-60
2022/05/13 08:18:12;;;;;;;4.25;1.60;;;19.70;59.70;;;;;;5037653;28;20061;-59
2022/05/13 08:20:38;;;;;;;3.70;1.33;;;19.70;59.80;;;;;;5039091;28;20032;-60
2022/05/13 08:23:04;;;;;;;5.53;1.70;;;19.70;59.90;;;;;;5036648;28;20034;-59
2022/05/13 08:25:30;;;;;;;4.90;1.50;;;19.70;59.80;;;;;;5037746;28;20112;-59
2022/05/13 08:27:55;;;;;;;4.90;1.60;;;19.70;59.80;;;;;;5041312;28;20226;-60
2022/05/13 08:30:21;;;;;;;4.88;1.73;;;19.70;59.80;;;;;;5036198;28;20035;-59
2022/05/13 08:32:47;;;;;;;4.05;1.65;;;19.70;59.80;;;;;;5044180;28;20135;-60
2022/05/13 08:35:13;;;;;;;4.20;1.70;;;19.70;59.80;;;;;;5045071;28;20025;-59
2022/05/13 08:37:42;;;;;;;3.55;1.45;;;19.80;59.90;;;;;;5038572;28;20033;-59
2022/05/13 08:40:15;;;;;;;4.00;1.70;;;19.80;59.80;;;;;;5037908;28;20109;-60
2022/05/13 08:42:43;;;;;;;5.88;1.63;;;19.80;59.80;;;;;;5046420;28;20029;-59
2022/05/13 08:45:10;;;;;;;4.05;1.63;;;19.80;59.70;;;;;;5041725;28;20048;-59
2022/05/13 08:47:56;;;;;;;3.35;1.50;;;19.90;59.70;;;;;;5042523;28;20040;-59
2022/05/13 08:50:53;;;;;;;4.72;1.60;;;19.80;59.80;;;;;;5036870;28;20029;-59
2022/05/13 08:53:29;;;;;;;4.07;1.60;;;19.80;59.80;;;;;;5047477;28;20083;-59
2022/05/13 08:56:01;;;;;;;2.90;1.40;;;19.80;59.80;;;;;;5035789;28;20021;-60
2022/05/13 08:58:49;;;;;;;3.70;1.70;;;19.80;59.70;;;;;;5038848;28;20450;-59
2022/05/13 09:01:25;;;;;;;4.43;1.40;;;19.90;59.50;;;;;;5038651;28;20028;-60
2022/05/13 09:03:53;;;;;;;3.42;1.70;;;19.90;59.60;;;;;;5046528;28;20154;-59
2022/05/13 09:06:27;;;;;;;3.53;1.55;;;20.00;59.60;;;;;;5034273;28;20029;-60
2022/05/13 09:08:53;;;;;;;4.05;1.55;;;19.90;59.60;;;;;;5037690;28;20504;-59
2022/05/13 09:11:51;;;;;;;4.38;1.88;;;19.90;59.60;;;;;;5033912;28;20043;-59
2022/05/13 09:14:25;;;;;;;3.35;1.60;;;19.90;59.60;;;;;;5043361;28;20025;-59
2022/05/13 09:17:03;;;;;;;3.47;1.40;;;19.90;59.50;;;;;;5038321;28;20087;-59
2022/05/13 09:19:37;;;;;;;4.43;1.58;;;19.90;59.60;;;;;;5035369;28;20032;-59
2022/05/13 09:22:06;;;;;;;2.90;1.30;;;19.90;59.30;;;;;;5041641;28;20029;-59
2022/05/13 09:24:32;;;;;;;5.03;1.70;;;19.90;59.40;;;;;;5036011;28;20080;-60
2022/05/13 09:26:57;;;;;;;2.47;1.30;;;20.00;59.50;;;;;;5043430;28;20064;-60
2022/05/13 09:29:23;;;;;;;2.85;1.40;;;19.90;59.30;;;;;;5034992;28;20021;-59
2022/05/13 09:31:55;;;;;;;3.10;1.60;;;19.90;59.50;;;;;;5040367;28;20057;-59
2022/05/13 09:34:36;;;;;;;4.20;1.60;;;19.90;59.50;;;;;;5040521;28;20071;-59
2022/05/13 09:37:02;;;;;;;4.22;1.40;;;19.90;59.60;;;;;;5037285;28;20037;-59
2022/05/13 09:39:32;;;;;;;3.30;1.38;;;20.00;59.50;;;;;;5035873;28;20025;-59
2022/05/13 09:41:58;;;;;;;3.55;1.52;;;20.00;59.30;;;;;;5041268;28;20394;-59
2022/05/13 09:44:25;;;;;;;2.95;1.48;;;20.00;59.30;;;;;;5037522;28;20041;-59
2022/05/13 09:46:53;;;;;;;2.78;1.40;;;20.00;59.20;;;;;;5038866;28;20540;-60
2022/05/13 09:49:33;;;;;;;4.40;1.70;;;20.00;59.30;;;;;;5033267;28;20437;-59
2022/05/13 09:52:09;;;;;;;3.80;1.50;;;20.00;59.20;;;;;;5041646;28;20089;-60
2022/05/13 09:54:36;;;;;;;2.20;1.30;;;20.00;59.20;;;;;;5035231;28;20021;-60
2022/05/13 09:57:30;;;;;;;3.90;1.50;;;20.00;59.20;;;;;;5032853;28;20030;-59
2022/05/13 10:00:08;;;;;;;2.47;1.40;;;20.00;59.30;;;;;;5034326;28;20039;-60
2022/05/13 10:02:35;;;;;;;5.10;1.40;;;20.00;59.30;;;;;;5040096;28;20016;-60
2022/05/13 10:05:17;;;;;;;3.50;1.33;;;20.00;59.40;;;;;;5039216;28;20116;-59
2022/05/13 10:07:49;;;;;;;3.63;1.52;;;20.00;59.10;;;;;;5036311;28;20022;-59
2022/05/13 10:16:19;;;;;;;3.63;1.42;;;20.10;59.10;;;;;;5019943;28;20064;-60
2022/05/13 10:18:47;;;;;;;4.90;1.60;;;20.10;59.10;;;;;;4994434;28;20025;-59
2022/05/13 10:21:48;;;;;;;3.97;1.30;;;20.10;59.20;;;;;;5025512;28;20038;-60
2022/05/13 10:24:34;;;;;;;3.63;1.50;;;20.10;59.20;;;;;;5004673;28;20040;-60
2022/05/13 10:27:00;;;;;;;;;;;20.10;59.30;;;;;;5024525;28;20028;-60
2022/05/13 10:29:45;;;;;;;2.05;1.15;;;20.10;59.10;;;;;;5006741;28;19913;-60
2022/05/13 10:32:24;;;;;;;;;;;20.10;59.10;;;;;;5008792;28;20497;-60
2022/05/13 10:34:53;;;;;;;3.72;1.30;;;20.10;59.00;;;;;;5024620;28;19913;-59
2022/05/13 10:37:29;;;;;;;2.35;1.27;;;20.10;59.10;;;;;;4994614;28;20037;-59
2022/05/13 10:40:03;;;;;;;3.50;1.40;;;20.10;59.20;;;;;;5024504;28;20034;-60
2022/05/13 10:42:37;;;;;;;2.55;1.27;;;20.10;59.20;;;;;;5011198;28;20148;-59
2022/05/13 10:45:20;;;;;;;3.00;1.48;;;20.10;59.20;;;;;;5025327;28;20458;-60
2022/05/13 10:48:11;;;;;;;3.58;1.10;;;20.10;59.40;;;;;;5042832;28;20099;-60
2022/05/13 10:50:42;;;;;;;4.32;1.30;;;20.20;59.30;;;;;;5044144;28;20462;-60
2022/05/13 10:53:10;;;;;;;3.00;1.25;;;20.20;59.20;;;;;;5038311;28;20397;-60
2022/05/13 10:55:48;;;;;;;3.88;1.60;;;20.20;59.10;;;;;;5035574;28;20036;-59
2022/05/13 10:58:37;;;;;;;3.10;1.20;;;20.20;59.00;;;;;;5038351;28;20041;-60
2022/05/13 11:01:19;;;;;;;3.45;1.30;;;20.30;59.10;;;;;;5035157;28;20468;-59
2022/05/13 11:04:00;;;;;;;3.22;1.50;;;20.30;59.10;;;;;;5037582;28;20049;-59
2022/05/13 11:07:03;;;;;;;2.85;1.15;;;20.20;59.20;;;;;;5034582;28;20497;-60
2022/05/13 11:09:50;;;;;;;3.22;1.40;;;20.30;59.30;;;;;;5034071;28;20021;-60
2022/05/13 11:12:32;;;;;;;2.28;1.42;;;20.20;59.30;;;;;;5043878;28;20475;-60
2022/05/13 11:15:07;;;;;;;2.45;1.23;;;20.30;59.30;;;;;;5039296;28;20029;-60
2022/05/13 11:17:51;;;;;;;2.75;1.10;;;20.30;59.30;;;;;;5040090;28;20041;-60
2022/05/13 11:20:36;;;;;;;1.60;1.13;;;20.30;59.20;;;;;;5037586;28;20491;-60
2022/05/13 11:23:43;;;;;;;2.65;1.30;;;20.30;59.20;;;;;;5040042;28;20122;-59
2022/05/13 11:26:09;;;;;;;2.03;1.20;;;20.30;59.20;;;;;;5038227;28;20406;-59
2022/05/13 11:28:51;;;;;;;3.45;1.40;;;20.30;59.40;;;;;;5036434;28;20017;-60
2022/05/13 11:31:20;;;;;;;3.38;1.30;;;20.40;59.40;;;;;;5042021;28;20033;-60
2022/05/13 11:33:54;;;;;;;2.80;1.27;;;20.40;59.40;;;;;;5037532;28;20025;-59
2022/05/13 11:36:37;;;;;;;3.50;1.45;;;20.40;59.40;;;;;;5041781;28;20179;-60
2022/05/13 11:39:31;;;;;;;4.45;1.40;;;20.40;59.60;;;;;;5041662;28;20037;-58
2022/05/13 11:41:56;;;;;;;2.47;1.10;;;20.40;59.40;;;;;;5043301;28;20033;-59
2022/05/13 11:44:28;;;;;;;2.47;1.13;;;20.40;59.40;;;;;;5037711;28;20029;-59
2022/05/13 11:47:17;;;;;;;2.10;1.25;;;20.40;59.20;;;;;;5025386;28;20119;-60
2022/05/13 11:49:45;;;;;;;4.88;1.63;;;20.40;59.20;;;;;;5031899;28;20044;-60
2022/05/13 11:52:14;;;;;;;3.33;1.30;;;20.50;59.10;;;;;;5034751;28;20033;-60
2022/05/13 11:54:41;;;;;;;2.90;1.23;;;20.50;59.20;;;;;;5032824;28;20029;-60
2022/05/13 11:57:19;;;;;;;1.67;1.10;;;20.50;59.00;;;;;;5041928;28;20052;-59
2022/05/13 11:59:47;;;;;;;2.63;1.30;;;20.50;59.10;;;;;;5034073;28;20021;-60
2022/05/13 12:02:13;;;;;;;3.70;1.40;;;20.50;59.10;;;;;;5034984;28;20037;-60
2022/05/13 12:05:07;;;;;;;2.67;1.30;;;20.50;59.10;;;;;;5037323;28;20025;-60
2022/05/13 12:07:47;;;;;;;1.85;1.27;;;20.60;59.00;;;;;;5017283;28;20096;-60
2022/05/13 12:10:13;;;;;;;2.88;1.42;;;20.60;59.00;;;;;;5000587;28;20033;-60
2022/05/13 12:12:59;;;;;;;3.88;1.30;;;20.60;59.00;;;;;;4997481;28;20034;-59
2022/05/13 12:16:00;;;;;;;3.13;1.40;;;20.60;59.00;;;;;;5007819;28;20042;-60
2022/05/13 12:18:35;;;;;;;2.38;1.27;;;20.70;59.00;;;;;;4957299;28;20047;-60
2022/05/13 12:21:26;;;;;;;2.88;1.30;;;20.70;59.00;;;;;;4962896;28;20555;-60
2022/05/13 12:23:57;;;;;;;2.28;1.30;;;20.70;59.00;;;;;;4951629;28;20035;-60
2022/05/13 12:26:54;;;;;;;1.88;1.15;;;20.70;59.10;;;;;;4964229;28;20426;-60
2022/05/13 12:29:23;;;;;;;2.60;1.27;;;20.70;58.90;;;;;;4957261;28;20050;-60
2022/05/13 12:31:54;;;;;;;4.00;1.35;;;20.70;58.80;;;;;;4958434;28;20303;-60
2022/05/13 12:37:34;;;;;;;3.15;1.20;;;20.80;58.90;;;;;;4957842;28;20054;-60
2022/05/13 12:39:59;;;;;;;2.03;1.05;;;20.80;59.00;;;;;;4950856;28;20594;-60
2022/05/13 12:42:48;;;;;;;3.60;1.30;;;20.90;58.80;;;;;;4962318;28;20039;-60
2022/05/13 12:45:22;;;;;;;3.20;1.40;;;20.90;58.80;;;;;;4950650;28;20049;-60
2022/05/13 12:48:08;;;;;;;2.45;1.20;;;20.90;58.80;;;;;;4956956;28;20049;-60
2022/05/13 12:51:03;;;;;;;1.45;1.17;;;20.90;58.80;;;;;;4969591;28;20086;-60
2022/05/13 12:53:28;;;;;;;2.63;1.20;;;20.90;58.80;;;;;;5034981;28;20038;-60
2022/05/13 12:55:59;;;;;;;2.33;1.10;;;20.90;58.80;;;;;;5036567;28;20395;-60
2022/05/13 12:58:25;;;;;;;3.13;1.40;;;20.90;58.80;;;;;;5037124;28;20025;-60
2022/05/13 13:00:52;;;;;;;3.10;1.40;;;21.00;58.80;;;;;;5044202;28;20036;-60
2022/05/13 13:03:19;;;;;;;2.53;1.27;;;20.90;58.80;;;;;;5035796;28;20426;-60
2022/05/13 13:05:54;;;;;;;2.53;1.40;;;21.00;58.80;;;;;;5037054;28;20064;-60
2022/05/13 13:08:26;;;;;;;3.38;1.30;;;21.00;58.80;;;;;;5037089;28;20072;-60
2022/05/13 13:10:57;;;;;;;2.72;1.20;;;21.00;58.70;;;;;;5038664;28;20041;-60
2022/05/13 13:13:36;;;;;;;1.90;1.23;;;21.00;58.60;;;;;;5036029;28;20446;-60
2022/05/13 13:16:05;;;;;;;1.92;1.17;;;21.00;58.70;;;;;;5037688;28;20078;-60
2022/05/13 13:18:37;;;;;;;2.05;1.10;;;21.10;58.70;;;;;;5044837;28;20079;-60
2022/05/13 13:21:10;;;;;;;2.88;1.27;;;21.10;58.60;;;;;;5032996;28;20478;-60
2022/05/13 13:23:40;;;;;;;2.65;1.38;;;21.10;58.50;;;;;;5059878;28;20029;-60
2022/05/13 13:26:07;;;;;;;3.08;1.40;;;21.10;58.60;;;;;;5040946;28;20052;-60
2022/05/13 13:28:39;;;;;;;2.40;1.20;;;21.20;58.60;;;;;;5038967;28;20452;-60
2022/05/13 13:31:21;;;;;;;1.95;1.20;;;21.20;58.50;;;;;;5038480;28;20029;-60